RYR76ZJ EPKK-EGNM
Flight info
| Callsign | RYR76ZJ |
|---|---|
| Flight time | N/A |
| Altitude | 36000 |
| Route | OMFOL DCT DINOV DCT NAROX DCT TADUV DCT MIMVA DCT OTBED Y70 BATLI DCT LBA |
| Aircraft | B38M/M-SADE3FGIJ1LRWY/SB1 |
Departure
| Time | 2026-04-30 13:15 |
|---|---|
| Airport | Kraków John Paul II International Airport (EPKK) |
Arrival
| Time | N/A |
|---|---|
| Airport | Leeds Bradford Airport (EGNM) |
| Time | Latitude | Longitude | Altitude | Speed | Heading |
|---|---|---|---|---|---|
| 2026-04-30 12:52 | 50.07502 | 19.80272 | 802 ft | 0 kts | 167° |
| 2026-04-30 13:13 | 50.07465 | 19.80371 | 802 ft | 11 kts | 35° |
| 2026-04-30 13:13 | 50.07544 | 19.80413 | 802 ft | 13 kts | 16° |
| 2026-04-30 13:13 | 50.07746 | 19.80369 | 802 ft | 16 kts | 347° |
| 2026-04-30 13:14 | 50.07863 | 19.80330 | 802 ft | 18 kts | 348° |
| 2026-04-30 13:14 | 50.07987 | 19.80289 | 802 ft | 12 kts | 345° |
| 2026-04-30 13:14 | 50.07927 | 19.79580 | 803 ft | 94 kts | 257° |
| 2026-04-30 13:15 | 50.07738 | 19.78234 | 803 ft | 159 kts | 258° |
| 2026-04-30 13:15 | 50.07247 | 19.74675 | 2266 ft | 176 kts | 261° |
| 2026-04-30 13:15 | 50.06975 | 19.72732 | 3073 ft | 190 kts | 261° |
| 2026-04-30 13:16 | 50.06672 | 19.70579 | 3836 ft | 210 kts | 261° |
| 2026-04-30 13:16 | 50.06349 | 19.68294 | 4719 ft | 224 kts | 260° |
| 2026-04-30 13:16 | 50.06206 | 19.65818 | 5439 ft | 243 kts | 281° |
| 2026-04-30 13:17 | 50.07302 | 19.60513 | 7190 ft | 264 kts | 291° |
| 2026-04-30 13:17 | 50.07905 | 19.57777 | 8201 ft | 271 kts | 292° |
| 2026-04-30 13:17 | 50.09162 | 19.52087 | 10106 ft | 284 kts | 293° |
| 2026-04-30 13:18 | 50.09814 | 19.49127 | 10837 ft | 296 kts | 293° |
| 2026-04-30 13:18 | 50.11231 | 19.42668 | 11831 ft | 332 kts | 293° |
| 2026-04-30 13:18 | 50.11990 | 19.39200 | 12477 ft | 341 kts | 293° |
| 2026-04-30 13:19 | 50.12758 | 19.35687 | 13380 ft | 344 kts | 293° |
| 2026-04-30 13:19 | 50.13534 | 19.32134 | 14158 ft | 349 kts | 293° |
| 2026-04-30 13:19 | 50.14321 | 19.28527 | 14857 ft | 353 kts | 294° |
| 2026-04-30 13:19 | 50.15113 | 19.24884 | 15536 ft | 358 kts | 294° |
| 2026-04-30 13:20 | 50.15917 | 19.21181 | 16221 ft | 362 kts | 294° |
| 2026-04-30 13:20 | 50.16729 | 19.17440 | 16860 ft | 367 kts | 294° |
| 2026-04-30 13:20 | 50.17547 | 19.13654 | 17513 ft | 371 kts | 294° |
| 2026-04-30 13:20 | 50.18374 | 19.09828 | 18153 ft | 375 kts | 294° |
| 2026-04-30 13:21 | 50.19211 | 19.05942 | 18760 ft | 379 kts | 294° |
| 2026-04-30 13:21 | 50.20056 | 19.02017 | 19292 ft | 383 kts | 294° |
| 2026-04-30 13:21 | 50.20905 | 18.98062 | 19844 ft | 386 kts | 294° |
| 2026-04-30 13:22 | 50.22620 | 18.90048 | 20908 ft | 392 kts | 295° |
| 2026-04-30 13:22 | 50.23485 | 18.85997 | 21433 ft | 395 kts | 295° |
| 2026-04-30 13:22 | 50.25246 | 18.77725 | 22489 ft | 402 kts | 295° |
| 2026-04-30 13:23 | 50.26128 | 18.73569 | 23017 ft | 405 kts | 295° |
| 2026-04-30 13:23 | 50.27909 | 18.65146 | 24040 ft | 411 kts | 295° |
| 2026-04-30 13:24 | 50.29712 | 18.56589 | 24899 ft | 418 kts | 295° |
| 2026-04-30 13:24 | 50.31536 | 18.47896 | 25746 ft | 424 kts | 295° |
| 2026-04-30 13:25 | 50.33378 | 18.39070 | 26569 ft | 430 kts | 296° |
| 2026-04-30 13:25 | 50.35243 | 18.30103 | 27359 ft | 436 kts | 296° |
| 2026-04-30 13:26 | 50.38075 | 18.16400 | 28490 ft | 445 kts | 296° |
| 2026-04-30 13:26 | 50.39988 | 18.07094 | 29213 ft | 452 kts | 297° |
| 2026-04-30 13:27 | 50.41918 | 17.97661 | 29907 ft | 458 kts | 297° |
| 2026-04-30 13:28 | 50.44850 | 17.83262 | 30847 ft | 464 kts | 298° |
| 2026-04-30 13:28 | 50.47376 | 17.74026 | 31375 ft | 462 kts | 304° |
| 2026-04-30 13:28 | 50.48685 | 17.69407 | 31663 ft | 464 kts | 304° |
| 2026-04-30 13:29 | 50.51340 | 17.60040 | 32236 ft | 469 kts | 303° |
| 2026-04-30 13:29 | 50.53998 | 17.50630 | 32765 ft | 473 kts | 303° |
| 2026-04-30 13:30 | 50.57540 | 17.38033 | 33728 ft | 473 kts | 303° |
| 2026-04-30 13:31 | 50.60188 | 17.28572 | 34459 ft | 472 kts | 303° |
| 2026-04-30 13:31 | 50.64132 | 17.14407 | 35457 ft | 468 kts | 302° |
| 2026-04-30 13:32 | 50.66725 | 17.05048 | 36160 ft | 465 kts | 302° |
| 2026-04-30 13:32 | 50.69303 | 16.95707 | 36445 ft | 463 kts | 302° |
| 2026-04-30 13:33 | 50.71849 | 16.86447 | 36440 ft | 461 kts | 302° |
| 2026-04-30 13:34 | 50.75664 | 16.72498 | 36439 ft | 461 kts | 302° |
| 2026-04-30 13:35 | 50.80736 | 16.53822 | 36441 ft | 461 kts | 302° |
| 2026-04-30 13:36 | 50.85765 | 16.35157 | 36440 ft | 461 kts | 301° |
| 2026-04-30 13:36 | 50.89511 | 16.21157 | 36434 ft | 461 kts | 301° |
| 2026-04-30 13:37 | 50.93239 | 16.07095 | 36437 ft | 461 kts | 301° |
| 2026-04-30 13:38 | 50.96908 | 15.92991 | 36439 ft | 461 kts | 301° |
| 2026-04-30 13:39 | 51.01783 | 15.74143 | 36438 ft | 461 kts | 301° |
| 2026-04-30 13:40 | 51.05433 | 15.59928 | 36439 ft | 462 kts | 300° |
| 2026-04-30 13:40 | 51.07850 | 15.50467 | 36439 ft | 461 kts | 300° |
| 2026-04-30 13:41 | 51.10255 | 15.41009 | 36436 ft | 462 kts | 300° |
| 2026-04-30 13:41 | 51.12659 | 15.31519 | 36440 ft | 462 kts | 300° |
| 2026-04-30 13:42 | 51.15051 | 15.22035 | 36439 ft | 462 kts | 300° |
| 2026-04-30 13:42 | 51.18627 | 15.07784 | 36444 ft | 462 kts | 300° |
| 2026-04-30 13:43 | 51.20626 | 14.98000 | 36438 ft | 475 kts | 285° |
| 2026-04-30 13:43 | 51.21680 | 14.87595 | 36448 ft | 476 kts | 287° |
| 2026-04-30 13:44 | 51.22743 | 14.77175 | 36444 ft | 476 kts | 287° |
| 2026-04-30 13:44 | 51.23792 | 14.66743 | 36445 ft | 476 kts | 286° |
| 2026-04-30 13:45 | 51.25346 | 14.51096 | 36443 ft | 476 kts | 286° |
| 2026-04-30 13:46 | 51.26378 | 14.40590 | 36447 ft | 476 kts | 286° |
| 2026-04-30 13:46 | 51.27394 | 14.30143 | 36447 ft | 476 kts | 286° |
| 2026-04-30 13:47 | 51.28399 | 14.19711 | 36450 ft | 476 kts | 286° |
| 2026-04-30 13:47 | 51.29396 | 14.09256 | 36448 ft | 475 kts | 285° |
| 2026-04-30 13:48 | 51.30382 | 13.98823 | 36451 ft | 475 kts | 285° |
| 2026-04-30 13:48 | 51.31360 | 13.88368 | 36451 ft | 475 kts | 285° |
| 2026-04-30 13:49 | 51.32327 | 13.77928 | 36451 ft | 475 kts | 285° |
| 2026-04-30 13:49 | 51.33283 | 13.67492 | 36453 ft | 475 kts | 285° |
| 2026-04-30 13:50 | 51.34232 | 13.57041 | 36452 ft | 474 kts | 285° |
| 2026-04-30 13:50 | 51.35634 | 13.41393 | 36457 ft | 474 kts | 285° |
| 2026-04-30 13:51 | 51.36557 | 13.30953 | 36456 ft | 474 kts | 284° |
| 2026-04-30 13:51 | 51.37470 | 13.20513 | 36453 ft | 473 kts | 284° |
| 2026-04-30 13:52 | 51.38374 | 13.10084 | 36452 ft | 473 kts | 284° |
| 2026-04-30 13:52 | 51.39268 | 12.99647 | 36453 ft | 473 kts | 284° |
| 2026-04-30 13:53 | 51.40152 | 12.89217 | 36457 ft | 473 kts | 284° |
| 2026-04-30 13:53 | 51.41033 | 12.78708 | 36456 ft | 472 kts | 284° |
| 2026-04-30 13:54 | 51.41899 | 12.68293 | 36459 ft | 472 kts | 284° |
| 2026-04-30 13:54 | 51.42759 | 12.57863 | 36469 ft | 472 kts | 284° |
| 2026-04-30 13:55 | 51.43493 | 12.52820 | 36467 ft | 458 kts | 298° |
| 2026-04-30 13:55 | 51.44649 | 12.48077 | 36467 ft | 460 kts | 297° |
| 2026-04-30 13:55 | 51.46838 | 12.38428 | 36479 ft | 460 kts | 296° |
| 2026-04-30 13:56 | 51.49016 | 12.28770 | 36451 ft | 460 kts | 296° |
| 2026-04-30 13:56 | 51.51183 | 12.19113 | 36452 ft | 460 kts | 296° |
| 2026-04-30 13:57 | 51.53340 | 12.09457 | 36449 ft | 460 kts | 296° |
| 2026-04-30 13:57 | 51.55490 | 11.99788 | 36454 ft | 459 kts | 295° |
| 2026-04-30 13:58 | 51.58713 | 11.85207 | 36453 ft | 459 kts | 295° |
| 2026-04-30 13:59 | 51.60839 | 11.75533 | 36457 ft | 459 kts | 295° |
| 2026-04-30 13:59 | 51.62956 | 11.65858 | 36464 ft | 459 kts | 295° |
| 2026-04-30 14:00 | 51.65069 | 11.56152 | 36467 ft | 458 kts | 295° |
| 2026-04-30 14:00 | 51.68215 | 11.41615 | 36469 ft | 458 kts | 294° |
| 2026-04-30 14:01 | 51.70302 | 11.31915 | 36484 ft | 458 kts | 294° |
| 2026-04-30 14:01 | 51.72383 | 11.22201 | 36471 ft | 458 kts | 294° |
| 2026-04-30 14:02 | 51.74118 | 11.14062 | 36467 ft | 458 kts | 294° |
| 2026-04-30 14:02 | 51.76183 | 11.04336 | 36453 ft | 458 kts | 294° |
| 2026-04-30 14:03 | 51.78240 | 10.94598 | 36453 ft | 458 kts | 294° |
| 2026-04-30 14:03 | 51.80285 | 10.84866 | 36454 ft | 458 kts | 294° |
| 2026-04-30 14:04 | 51.82326 | 10.75116 | 36451 ft | 458 kts | 293° |
| 2026-04-30 14:04 | 51.84358 | 10.65355 | 36446 ft | 458 kts | 293° |
| 2026-04-30 14:05 | 51.86380 | 10.55596 | 36447 ft | 458 kts | 293° |
| 2026-04-30 14:05 | 51.88399 | 10.45804 | 36437 ft | 458 kts | 293° |
| 2026-04-30 14:06 | 51.91405 | 10.31133 | 36442 ft | 458 kts | 292° |
| 2026-04-30 14:07 | 51.94411 | 10.16353 | 36442 ft | 459 kts | 292° |
| 2026-04-30 14:08 | 51.97386 | 10.01612 | 36443 ft | 459 kts | 292° |
| 2026-04-30 14:08 | 52.00347 | 9.86835 | 36439 ft | 459 kts | 292° |
| 2026-04-30 14:09 | 52.02312 | 9.76966 | 36442 ft | 460 kts | 291° |
| 2026-04-30 14:10 | 52.05244 | 9.62144 | 36429 ft | 459 kts | 291° |
| 2026-04-30 14:10 | 52.07187 | 9.52258 | 36438 ft | 460 kts | 291° |
| 2026-04-30 14:11 | 52.09123 | 9.42358 | 36432 ft | 459 kts | 291° |
| 2026-04-30 14:11 | 52.11050 | 9.32455 | 36438 ft | 460 kts | 291° |
| 2026-04-30 14:12 | 52.12969 | 9.22539 | 36446 ft | 460 kts | 291° |
| 2026-04-30 14:12 | 52.14882 | 9.12603 | 36447 ft | 460 kts | 290° |
| 2026-04-30 14:13 | 52.16786 | 9.02660 | 36455 ft | 460 kts | 290° |
| 2026-04-30 14:13 | 52.18680 | 8.92717 | 36454 ft | 460 kts | 290° |
| 2026-04-30 14:14 | 52.20578 | 8.82704 | 36446 ft | 460 kts | 290° |
| 2026-04-30 14:14 | 52.22459 | 8.72728 | 36441 ft | 460 kts | 290° |
| 2026-04-30 14:15 | 52.24329 | 8.62752 | 36434 ft | 460 kts | 290° |
| 2026-04-30 14:15 | 52.26191 | 8.52769 | 36420 ft | 460 kts | 289° |
| 2026-04-30 14:16 | 52.28044 | 8.42782 | 36423 ft | 460 kts | 289° |
| 2026-04-30 14:16 | 52.29890 | 8.32777 | 36425 ft | 460 kts | 289° |
| 2026-04-30 14:17 | 52.31732 | 8.22741 | 36430 ft | 460 kts | 289° |
| 2026-04-30 14:17 | 52.33560 | 8.12723 | 36425 ft | 460 kts | 289° |
| 2026-04-30 14:18 | 52.35383 | 8.02679 | 36422 ft | 460 kts | 289° |
| 2026-04-30 14:18 | 52.38099 | 7.87614 | 36406 ft | 460 kts | 288° |
| 2026-04-30 14:19 | 52.40795 | 7.72534 | 36406 ft | 460 kts | 288° |
| 2026-04-30 14:20 | 52.42584 | 7.62459 | 36404 ft | 461 kts | 288° |
| 2026-04-30 14:20 | 52.45252 | 7.47326 | 36412 ft | 461 kts | 288° |
| 2026-04-30 14:21 | 52.47023 | 7.37209 | 36410 ft | 461 kts | 288° |
| 2026-04-30 14:22 | 52.49674 | 7.21957 | 36415 ft | 462 kts | 288° |
| 2026-04-30 14:22 | 52.52294 | 7.06756 | 36404 ft | 462 kts | 287° |
| 2026-04-30 14:23 | 52.55764 | 6.86414 | 36395 ft | 462 kts | 287° |
| 2026-04-30 14:24 | 52.58345 | 6.71126 | 36390 ft | 463 kts | 287° |
| 2026-04-30 14:25 | 52.61758 | 6.50703 | 36386 ft | 464 kts | 287° |
| 2026-04-30 14:26 | 52.64301 | 6.35326 | 36381 ft | 464 kts | 287° |
| 2026-04-30 14:27 | 52.66823 | 6.19937 | 36380 ft | 464 kts | 286° |
| 2026-04-30 14:27 | 52.68494 | 6.09662 | 36379 ft | 464 kts | 286° |
| 2026-04-30 14:28 | 52.70985 | 5.94231 | 36379 ft | 464 kts | 286° |
| 2026-04-30 14:28 | 52.72637 | 5.83925 | 36375 ft | 465 kts | 286° |
| 2026-04-30 14:29 | 52.75647 | 5.64968 | 36369 ft | 465 kts | 285° |
| 2026-04-30 14:31 | 52.79965 | 5.37391 | 36365 ft | 464 kts | 285° |
| 2026-04-30 14:31 | 52.82365 | 5.21856 | 36366 ft | 465 kts | 285° |
| 2026-04-30 14:32 | 52.84741 | 5.06325 | 36371 ft | 465 kts | 284° |
| 2026-04-30 14:33 | 52.86315 | 4.95959 | 36373 ft | 465 kts | 284° |
| 2026-04-30 14:33 | 52.88660 | 4.80385 | 36374 ft | 465 kts | 284° |
| 2026-04-30 14:34 | 52.89961 | 4.71680 | 36374 ft | 465 kts | 284° |
| 2026-04-30 14:34 | 52.91495 | 4.61353 | 36371 ft | 464 kts | 284° |
| 2026-04-30 14:35 | 52.93792 | 4.45766 | 36367 ft | 464 kts | 284° |
| 2026-04-30 14:36 | 52.95323 | 4.35281 | 36361 ft | 464 kts | 283° |